createdAt,value
2022-11-26T00:02:22.960Z,14.90
2022-11-26T00:07:28.635Z,15.10
2022-11-26T00:12:34.945Z,17.30
2022-11-26T00:17:39.683Z,15.77
2022-11-26T00:22:45.663Z,17.37
2022-11-26T00:27:50.373Z,17.37
2022-11-26T00:32:56.407Z,18.40
2022-11-26T00:38:00.184Z,17.93
2022-11-26T00:43:03.601Z,16.00
2022-11-26T00:48:08.521Z,18.73
2022-11-26T00:53:15.421Z,18.83
2022-11-26T00:58:28.354Z,17.53
2022-11-26T01:03:33.325Z,18.43
2022-11-26T01:08:37.440Z,17.90
2022-11-26T01:13:41.129Z,18.40
2022-11-26T01:18:45.899Z,17.33
2022-11-26T01:23:49.429Z,20.23
2022-11-26T01:28:52.990Z,19.90
2022-11-26T01:33:58.375Z,20.40
2022-11-26T01:39:06.056Z,19.70
2022-11-26T01:44:17.737Z,17.20
2022-11-26T01:49:24.948Z,17.20
2022-11-26T01:54:28.512Z,20.20
2022-11-26T01:59:36.390Z,17.90
2022-11-26T02:04:48.419Z,17.50
2022-11-26T02:09:52.270Z,20.37
2022-11-26T02:14:56.441Z,18.30
2022-11-26T02:20:38.404Z,19.17
2022-11-26T02:26:10.145Z,22.23
2022-11-26T02:31:20.753Z,19.77
2022-11-26T02:36:28.913Z,18.67
2022-11-26T02:41:34.013Z,15.87
2022-11-26T02:46:40.378Z,17.60
2022-11-26T02:51:45.090Z,16.80
2022-11-26T02:56:50.732Z,17.63
2022-11-26T03:02:00.420Z,17.27
2022-11-26T03:07:06.438Z,18.27
2022-11-26T03:12:10.363Z,17.03
2022-11-26T03:17:15.912Z,20.90
2022-11-26T03:22:19.333Z,23.50
2022-11-26T03:27:22.690Z,22.00
2022-11-26T03:32:27.526Z,20.50
2022-11-26T03:37:30.936Z,19.33
2022-11-26T03:42:34.449Z,17.63
2022-11-26T03:47:39.472Z,17.93
2022-11-26T03:52:42.830Z,19.23
2022-11-26T03:57:46.182Z,20.47
2022-11-26T04:02:51.082Z,20.20
2022-11-26T04:07:54.682Z,18.47
2022-11-26T04:12:58.185Z,21.50
2022-11-26T04:18:02.931Z,20.10
2022-11-26T04:23:06.316Z,22.87
2022-11-26T04:28:09.820Z,33.13
2022-11-26T04:33:14.568Z,21.87
2022-11-26T04:38:21.544Z,25.33
2022-11-26T04:43:27.766Z,22.33
2022-11-26T04:48:32.547Z,24.87
2022-11-26T04:53:35.939Z,22.37
2022-11-26T04:58:39.363Z,19.23
2022-11-26T05:03:44.135Z,21.17
2022-11-26T05:08:47.504Z,20.17
2022-11-26T05:13:50.879Z,20.63
2022-11-26T05:18:55.707Z,20.30
2022-11-26T05:23:59.064Z,19.33
2022-11-26T05:29:02.673Z,17.23
2022-11-26T05:34:07.457Z,19.50
2022-11-26T05:39:10.919Z,19.77
2022-11-26T05:44:14.344Z,21.60
2022-11-26T05:49:19.205Z,20.83
2022-11-26T05:54:22.578Z,22.47
2022-11-26T05:59:26.041Z,23.27
2022-11-26T06:04:30.878Z,28.20
2022-11-26T06:09:34.411Z,22.40
2022-11-26T06:14:42.783Z,21.70
2022-11-26T06:19:48.086Z,22.43
2022-11-26T06:24:51.480Z,23.90
2022-11-26T06:29:54.958Z,26.40
2022-11-26T06:34:59.806Z,27.17
2022-11-26T06:40:03.694Z,21.27
2022-11-26T06:45:08.042Z,23.23
2022-11-26T06:50:12.915Z,22.37
2022-11-26T06:55:16.299Z,25.63
2022-11-26T07:00:20.225Z,26.53
2022-11-26T07:05:25.295Z,27.87
2022-11-26T07:10:29.175Z,23.07
2022-11-26T07:15:32.641Z,23.50
2022-11-26T07:20:38.383Z,24.30
2022-11-26T07:25:41.762Z,24.03
2022-11-26T07:30:45.113Z,23.97
2022-11-26T07:35:49.857Z,25.57
2022-11-26T07:40:53.228Z,27.57
2022-11-26T07:45:56.756Z,27.20
2022-11-26T07:51:02.556Z,23.23
2022-11-26T07:56:06.861Z,21.47
2022-11-26T08:01:11.891Z,23.00
2022-11-26T08:06:18.291Z,23.70
2022-11-26T08:11:23.102Z,23.37
2022-11-26T08:16:28.901Z,24.17
2022-11-26T08:21:34.645Z,23.33
2022-11-26T08:26:43.687Z,22.63
2022-11-26T08:31:49.052Z,24.53
2022-11-26T08:36:55.791Z,22.80
2022-11-26T08:41:59.191Z,26.03
2022-11-26T08:47:02.723Z,24.53
2022-11-26T08:52:07.642Z,22.47
2022-11-26T08:57:11.169Z,23.57
2022-11-26T09:02:18.657Z,24.33
2022-11-26T09:07:23.801Z,24.07
2022-11-26T09:12:27.219Z,23.27
2022-11-26T09:17:30.554Z,20.50
2022-11-26T09:22:35.393Z,17.40
2022-11-26T09:27:38.869Z,16.47
2022-11-26T09:32:42.369Z,14.90
2022-11-26T09:37:51.411Z,12.50
2022-11-26T09:43:05.420Z,14.63
2022-11-26T09:48:15.401Z,15.00
2022-11-26T09:53:23.587Z,15.97
2022-11-26T09:58:34.230Z,14.47
2022-11-26T10:03:39.222Z,13.00
2022-11-26T10:09:04.716Z,14.27
2022-11-26T10:14:20.215Z,15.50
2022-11-26T10:19:29.732Z,14.33
2022-11-26T10:24:38.660Z,18.80
2022-11-26T10:29:46.274Z,14.50
2022-11-26T10:34:55.643Z,16.03
2022-11-26T10:40:21.240Z,11.37
2022-11-26T10:45:30.337Z,13.70
2022-11-26T10:50:50.541Z,13.53
2022-11-26T10:55:58.632Z,11.77
2022-11-26T11:01:04.628Z,13.33
2022-11-26T11:06:28.215Z,9.90
2022-11-26T11:11:33.106Z,8.77
2022-11-26T11:16:41.201Z,9.70
2022-11-26T11:21:48.295Z,12.23
2022-11-26T11:26:55.024Z,10.17
2022-11-26T11:31:58.939Z,7.07
2022-11-26T11:37:05.257Z,6.90
2022-11-26T11:42:23.302Z,8.93
2022-11-26T11:47:35.718Z,7.03
2022-11-26T11:52:52.218Z,5.70
2022-11-26T11:58:21.146Z,21.83
2022-11-26T12:03:49.852Z,15.47
2022-11-26T12:09:03.942Z,8.07
2022-11-26T12:14:14.542Z,6.17
2022-11-26T12:19:27.154Z,5.13
2022-11-26T12:24:40.716Z,4.77
2022-11-26T12:29:51.283Z,8.13
2022-11-26T12:34:58.706Z,15.57
2022-11-26T12:40:08.302Z,9.30
2022-11-26T12:45:21.805Z,8.13
2022-11-26T12:50:35.392Z,7.07
2022-11-26T12:55:46.837Z,6.90
2022-11-26T13:00:54.707Z,7.00
2022-11-26T13:06:05.193Z,8.10
2022-11-26T13:11:24.877Z,8.03
2022-11-26T13:16:37.958Z,6.30
2022-11-26T13:21:53.895Z,8.17
2022-11-26T13:27:14.006Z,6.03
2022-11-26T13:32:38.656Z,5.97
2022-11-26T13:37:53.680Z,6.73
2022-11-26T13:43:16.953Z,10.03
2022-11-26T13:48:27.821Z,10.07
2022-11-26T13:53:37.798Z,10.57
2022-11-26T13:58:45.905Z,11.13
2022-11-26T14:03:50.736Z,11.70
2022-11-26T14:08:55.244Z,11.37
2022-11-26T14:14:31.165Z,13.17
2022-11-26T14:20:16.860Z,12.80
2022-11-26T14:25:38.662Z,14.07
2022-11-26T14:30:42.174Z,13.17
2022-11-26T14:35:56.297Z,14.83
2022-11-26T14:41:01.345Z,12.67
2022-11-26T14:46:13.754Z,11.93
2022-11-26T14:51:24.432Z,13.97
2022-11-26T14:56:28.814Z,13.20
2022-11-26T15:01:34.050Z,14.10
2022-11-26T15:06:43.608Z,19.97
2022-11-26T15:11:49.538Z,16.53
2022-11-26T15:16:57.761Z,15.07
2022-11-26T15:22:06.113Z,21.23
2022-11-26T15:27:31.400Z,22.80
2022-11-26T15:32:35.141Z,36.70
2022-11-26T15:37:39.924Z,32.33
2022-11-26T15:42:43.389Z,27.73
2022-11-26T15:47:49.210Z,54.33
2022-11-26T15:52:58.034Z,62.23
2022-11-26T15:58:05.599Z,39.07
2022-11-26T16:03:37.555Z,25.63
2022-11-26T16:08:59.651Z,23.47
2022-11-26T16:14:24.919Z,22.53
2022-11-26T16:19:30.664Z,22.67
2022-11-26T16:24:40.160Z,26.47
2022-11-26T16:29:43.606Z,23.47
2022-11-26T16:34:47.290Z,23.93
2022-11-26T16:39:54.077Z,26.17
2022-11-26T16:45:02.666Z,30.47
2022-11-26T16:50:14.542Z,29.57
2022-11-26T16:55:26.655Z,27.80
2022-11-26T17:00:30.047Z,23.60
2022-11-26T17:05:33.505Z,27.93
2022-11-26T17:10:38.603Z,27.40
2022-11-26T17:15:42.656Z,28.20
2022-11-26T17:20:46.147Z,27.03
2022-11-26T17:25:54.525Z,28.47
2022-11-26T17:30:57.916Z,28.23
2022-11-26T17:36:01.417Z,27.77
2022-11-26T17:41:06.696Z,31.87
2022-11-26T17:46:16.110Z,29.43
2022-11-26T17:51:20.414Z,26.23
2022-11-26T17:56:27.373Z,27.87
2022-11-26T18:01:30.757Z,36.67
2022-11-26T18:06:54.674Z,31.43
2022-11-26T18:12:00.202Z,29.20
2022-11-26T18:17:03.763Z,30.67
2022-11-26T18:22:07.838Z,30.73
2022-11-26T18:27:12.598Z,31.50
2022-11-26T18:32:16.442Z,30.43
2022-11-26T18:37:20.429Z,31.60
2022-11-26T18:42:40.788Z,32.67
2022-11-26T18:47:44.324Z,32.70
2022-11-26T18:52:47.817Z,28.93
2022-11-26T18:57:52.692Z,27.50
2022-11-26T19:02:56.192Z,30.47
2022-11-26T19:08:02.220Z,26.43
2022-11-26T19:13:08.358Z,26.27
2022-11-26T19:18:14.390Z,27.13
2022-11-26T19:23:24.111Z,25.27
2022-11-26T19:28:29.135Z,28.70
2022-11-26T19:33:33.591Z,27.40
2022-11-26T19:38:38.024Z,23.50
2022-11-26T19:43:44.065Z,30.47
2022-11-26T19:48:49.240Z,28.40
2022-11-26T19:53:54.387Z,26.23
2022-11-26T19:59:02.075Z,28.33
2022-11-26T20:04:07.505Z,26.67
2022-11-26T20:09:15.210Z,25.13
2022-11-26T20:14:20.057Z,28.10
2022-11-26T20:19:23.458Z,31.53
2022-11-26T20:24:27.368Z,30.00
2022-11-26T20:29:32.108Z,28.00
2022-11-26T20:34:35.569Z,28.27
2022-11-26T20:39:39.307Z,33.33
2022-11-26T20:44:44.356Z,29.33
2022-11-26T20:49:48.011Z,27.97
2022-11-26T20:54:53.769Z,30.53
2022-11-26T20:59:58.829Z,31.07
2022-11-26T21:05:02.293Z,30.53
2022-11-26T21:10:07.961Z,33.20
2022-11-26T21:15:13.227Z,33.50
2022-11-26T21:20:16.761Z,33.47
2022-11-26T21:25:20.285Z,34.10
2022-11-26T21:30:25.116Z,32.90
2022-11-26T21:35:28.568Z,38.23
2022-11-26T21:40:32.073Z,36.63
2022-11-26T21:45:37.180Z,39.23
2022-11-26T21:50:40.614Z,45.20
2022-11-26T21:55:44.001Z,42.00
2022-11-26T22:00:48.828Z,42.90
2022-11-26T22:05:52.146Z,41.90
2022-11-26T22:10:55.653Z,41.83
2022-11-26T22:16:00.654Z,42.50
2022-11-26T22:21:04.410Z,41.73
2022-11-26T22:26:08.085Z,43.83
2022-11-26T22:31:16.375Z,49.27
2022-11-26T22:36:19.798Z,46.87
2022-11-26T22:41:24.002Z,44.50
2022-11-26T22:46:29.710Z,48.53
2022-11-26T22:51:35.048Z,42.53
2022-11-26T22:56:39.021Z,41.23
2022-11-26T23:01:43.856Z,44.40
2022-11-26T23:06:47.224Z,44.57
2022-11-26T23:11:50.974Z,41.60
2022-11-26T23:16:55.754Z,43.40
2022-11-26T23:21:59.145Z,43.63
2022-11-26T23:27:02.546Z,43.67
2022-11-26T23:32:07.389Z,46.47
2022-11-26T23:37:10.770Z,41.93
2022-11-26T23:42:14.167Z,43.93
2022-11-26T23:47:19.079Z,47.13
2022-11-26T23:52:22.553Z,46.37
2022-11-26T23:57:25.890Z,47.23
